MMMX/MEX METAR and TAF weather

Enter ICAO airport designator
Station Type Date Time Source
MMMX METAR 2020/09/19 18:49 UTC NOAA

MMMX 191849Z 01004KT 7SM BKN020 OVC080 18/11 A3031 NOSIG RMK 8/57/ HZY ISOL CU


Station Type Date Time Source
MMMX Decoded METAR 2020/09/19 18:49 UTC NOAA

Mexico City / Licenci, Mexico (MMMX) 19-26N 099-06W
Sep 19, 2020 - 02:49 PM EDT / 2020.09.19 1849 UTC
Wind: from the N (010 degrees) at 5 MPH (4 KT):0
Visibility: 7 mile(s):0
Sky conditions: overcast
Temperature: 64 F (18 C)
Dew Point: 51 F (11 C)
Relative Humidity: 63%
Pressure (altimeter): 30.31 in. Hg (1026 hPa)
ob: MMMX 191849Z 01004KT 7SM BKN020 OVC080 18/11 A3031 NOSIG RMK 8/57/ HZY ISOL CU
cycle: 19

Station Type Date Time Source
MMMX TAF 2020/09/19 18:42 UTC NOAA

TAF MMMX 191639Z 1918/2024 30005KT P6SM BKN025 TX21/1920Z TN14/2012Z
FM192200 02012KT 6SM VC RA BKN025 OVC080
TEMPO 1922/2002 5SM TSRA BKN020CB
FM200300 04010KT P6SM BKN020
FM201800 14010KT P6SM BKN025 PROB40 2021/2024 4SM TSRA BKN020CB

Example: see airport list